sensor_id;sensor_type;location;lat;lon;timestamp;temperature;humidity
70107;DHT22;57473;37.508;15.080;2022-09-25T00:01:12;20.00;61.60
70107;DHT22;57473;37.508;15.080;2022-09-25T00:03:40;20.00;61.60
70107;DHT22;57473;37.508;15.080;2022-09-25T00:06:14;20.00;61.40
70107;DHT22;57473;37.508;15.080;2022-09-25T00:08:42;20.10;61.60
70107;DHT22;57473;37.508;15.080;2022-09-25T00:11:15;20.10;61.40
70107;DHT22;57473;37.508;15.080;2022-09-25T00:13:43;20.10;61.60
70107;DHT22;57473;37.508;15.080;2022-09-25T00:16:15;20.10;61.60
70107;DHT22;57473;37.508;15.080;2022-09-25T00:18:43;20.00;61.80
70107;DHT22;57473;37.508;15.080;2022-09-25T00:21:31;20.10;61.80
70107;DHT22;57473;37.508;15.080;2022-09-25T00:24:00;20.10;61.80
70107;DHT22;57473;37.508;15.080;2022-09-25T00:26:30;20.10;61.90
70107;DHT22;57473;37.508;15.080;2022-09-25T00:28:59;20.10;61.90
70107;DHT22;57473;37.508;15.080;2022-09-25T00:31:28;20.10;62.00
70107;DHT22;57473;37.508;15.080;2022-09-25T00:33:58;20.00;62.10
70107;DHT22;57473;37.508;15.080;2022-09-25T00:36:26;20.10;62.00
70107;DHT22;57473;37.508;15.080;2022-09-25T00:38:53;20.10;62.00
70107;DHT22;57473;37.508;15.080;2022-09-25T00:41:23;20.10;62.10
70107;DHT22;57473;37.508;15.080;2022-09-25T00:43:54;20.10;62.00
70107;DHT22;57473;37.508;15.080;2022-09-25T00:49:01;20.20;62.00
70107;DHT22;57473;37.508;15.080;2022-09-25T00:51:36;20.20;62.00
70107;DHT22;57473;37.508;15.080;2022-09-25T00:54:17;20.20;62.20
70107;DHT22;57473;37.508;15.080;2022-09-25T00:56:49;20.20;62.20
70107;DHT22;57473;37.508;15.080;2022-09-25T00:59:21;20.20;62.10
70107;DHT22;57473;37.508;15.080;2022-09-25T01:01:50;20.20;62.30
70107;DHT22;57473;37.508;15.080;2022-09-25T01:04:18;20.20;62.40
70107;DHT22;57473;37.508;15.080;2022-09-25T01:06:49;20.10;62.50
70107;DHT22;57473;37.508;15.080;2022-09-25T01:09:17;20.10;62.50
70107;DHT22;57473;37.508;15.080;2022-09-25T01:11:44;20.10;62.60
70107;DHT22;57473;37.508;15.080;2022-09-25T01:14:12;20.10;62.70
70107;DHT22;57473;37.508;15.080;2022-09-25T01:16:55;20.10;62.70
70107;DHT22;57473;37.508;15.080;2022-09-25T01:25:14;20.00;63.40
70107;DHT22;57473;37.508;15.080;2022-09-25T01:28:03;19.90;63.50
70107;DHT22;57473;37.508;15.080;2022-09-25T01:30:41;19.90;63.50
70107;DHT22;57473;37.508;15.080;2022-09-25T01:33:26;19.90;63.60
70107;DHT22;57473;37.508;15.080;2022-09-25T01:36:33;19.90;63.50
70107;DHT22;57473;37.508;15.080;2022-09-25T01:39:19;20.00;63.40
70107;DHT22;57473;37.508;15.080;2022-09-25T01:41:59;20.00;63.40
70107;DHT22;57473;37.508;15.080;2022-09-25T01:44:39;19.90;63.60
70107;DHT22;57473;37.508;15.080;2022-09-25T01:47:13;19.90;63.40
70107;DHT22;57473;37.508;15.080;2022-09-25T01:49:47;19.90;63.40
70107;DHT22;57473;37.508;15.080;2022-09-25T01:52:22;19.90;63.40
70107;DHT22;57473;37.508;15.080;2022-09-25T01:54:59;19.90;63.50
70107;DHT22;57473;37.508;15.080;2022-09-25T01:57:47;19.90;63.60
70107;DHT22;57473;37.508;15.080;2022-09-25T02:00:19;19.90;63.70
70107;DHT22;57473;37.508;15.080;2022-09-25T02:05:31;19.90;63.90
70107;DHT22;57473;37.508;15.080;2022-09-25T02:08:09;19.80;64.30
70107;DHT22;57473;37.508;15.080;2022-09-25T02:10:46;19.80;64.30
70107;DHT22;57473;37.508;15.080;2022-09-25T02:13:17;19.80;64.40
70107;DHT22;57473;37.508;15.080;2022-09-25T02:15:53;19.80;64.60
70107;DHT22;57473;37.508;15.080;2022-09-25T02:18:23;19.80;64.80
70107;DHT22;57473;37.508;15.080;2022-09-25T02:24:07;19.90;64.70
70107;DHT22;57473;37.508;15.080;2022-09-25T02:26:37;19.90;64.80
70107;DHT22;57473;37.508;15.080;2022-09-25T02:29:04;19.90;64.90
70107;DHT22;57473;37.508;15.080;2022-09-25T02:31:37;19.90;65.70
70107;DHT22;57473;37.508;15.080;2022-09-25T02:34:06;19.80;66.10
70107;DHT22;57473;37.508;15.080;2022-09-25T02:36:41;19.80;66.10
70107;DHT22;57473;37.508;15.080;2022-09-25T02:39:11;19.90;66.30
70107;DHT22;57473;37.508;15.080;2022-09-25T02:41:48;19.80;66.70
70107;DHT22;57473;37.508;15.080;2022-09-25T02:50:27;19.80;67.30
70107;DHT22;57473;37.508;15.080;2022-09-25T02:58:40;19.80;68.10
70107;DHT22;57473;37.508;15.080;2022-09-25T03:01:12;19.90;67.90
70107;DHT22;57473;37.508;15.080;2022-09-25T03:03:41;19.90;68.10
70107;DHT22;57473;37.508;15.080;2022-09-25T03:06:10;19.80;68.20
70107;DHT22;57473;37.508;15.080;2022-09-25T03:08:42;19.90;68.30
70107;DHT22;57473;37.508;15.080;2022-09-25T03:11:15;19.80;68.50
70107;DHT22;57473;37.508;15.080;2022-09-25T03:13:43;19.80;69.00
70107;DHT22;57473;37.508;15.080;2022-09-25T03:16:29;19.80;68.80
70107;DHT22;57473;37.508;15.080;2022-09-25T03:18:57;19.80;69.00
70107;DHT22;57473;37.508;15.080;2022-09-25T03:21:24;19.80;68.90
70107;DHT22;57473;37.508;15.080;2022-09-25T03:23:51;19.90;68.80
70107;DHT22;57473;37.508;15.080;2022-09-25T03:26:19;19.90;68.80
70107;DHT22;57473;37.508;15.080;2022-09-25T03:28:46;19.90;68.80
70107;DHT22;57473;37.508;15.080;2022-09-25T03:31:14;19.90;68.80
70107;DHT22;57473;37.508;15.080;2022-09-25T03:33:43;19.80;69.00
70107;DHT22;57473;37.508;15.080;2022-09-25T03:36:11;19.80;69.20
70107;DHT22;57473;37.508;15.080;2022-09-25T03:38:40;19.80;69.30
70107;DHT22;57473;37.508;15.080;2022-09-25T03:41:09;19.70;69.40
70107;DHT22;57473;37.508;15.080;2022-09-25T03:43:38;19.70;69.50
70107;DHT22;57473;37.508;15.080;2022-09-25T03:46:08;19.70;69.60
70107;DHT22;57473;37.508;15.080;2022-09-25T03:48:37;19.70;69.70
70107;DHT22;57473;37.508;15.080;2022-09-25T03:51:05;19.70;69.70
70107;DHT22;57473;37.508;15.080;2022-09-25T03:53:33;19.80;69.60
70107;DHT22;57473;37.508;15.080;2022-09-25T03:56:02;19.80;69.50
70107;DHT22;57473;37.508;15.080;2022-09-25T03:58:30;19.80;69.50
70107;DHT22;57473;37.508;15.080;2022-09-25T04:00:57;19.90;69.20
70107;DHT22;57473;37.508;15.080;2022-09-25T04:03:26;19.90;68.90
70107;DHT22;57473;37.508;15.080;2022-09-25T04:05:57;19.90;68.70
70107;DHT22;57473;37.508;15.080;2022-09-25T04:08:27;20.00;68.70
70107;DHT22;57473;37.508;15.080;2022-09-25T04:10:55;20.00;68.50
70107;DHT22;57473;37.508;15.080;2022-09-25T04:13:27;19.90;68.70
70107;DHT22;57473;37.508;15.080;2022-09-25T04:15:58;19.90;68.50
70107;DHT22;57473;37.508;15.080;2022-09-25T04:18:28;19.90;68.60
70107;DHT22;57473;37.508;15.080;2022-09-25T04:20:58;19.80;68.80
70107;DHT22;57473;37.508;15.080;2022-09-25T04:23:26;19.80;68.90
70107;DHT22;57473;37.508;15.080;2022-09-25T04:25:54;19.80;69.00
70107;DHT22;57473;37.508;15.080;2022-09-25T04:28:21;19.80;69.00
70107;DHT22;57473;37.508;15.080;2022-09-25T04:30:49;19.80;68.90
70107;DHT22;57473;37.508;15.080;2022-09-25T04:33:17;19.80;68.90
70107;DHT22;57473;37.508;15.080;2022-09-25T04:36:03;19.80;68.90
70107;DHT22;57473;37.508;15.080;2022-09-25T04:38:31;19.80;68.70
70107;DHT22;57473;37.508;15.080;2022-09-25T04:40:59;19.80;68.70
70107;DHT22;57473;37.508;15.080;2022-09-25T04:43:28;19.90;68.30
70107;DHT22;57473;37.508;15.080;2022-09-25T04:46:03;19.90;68.00
70107;DHT22;57473;37.508;15.080;2022-09-25T04:48:31;19.90;67.80
70107;DHT22;57473;37.508;15.080;2022-09-25T04:50:59;20.00;67.70
70107;DHT22;57473;37.508;15.080;2022-09-25T04:53:28;20.00;67.20
70107;DHT22;57473;37.508;15.080;2022-09-25T04:56:00;20.00;67.20
70107;DHT22;57473;37.508;15.080;2022-09-25T04:58:28;20.00;66.90
70107;DHT22;57473;37.508;15.080;2022-09-25T05:01:01;20.00;66.90
70107;DHT22;57473;37.508;15.080;2022-09-25T05:03:29;20.00;66.60
70107;DHT22;57473;37.508;15.080;2022-09-25T05:05:57;20.00;66.40
70107;DHT22;57473;37.508;15.080;2022-09-25T05:08:26;20.00;66.30
70107;DHT22;57473;37.508;15.080;2022-09-25T05:10:53;20.10;66.00
70107;DHT22;57473;37.508;15.080;2022-09-25T05:13:21;20.10;65.90
70107;DHT22;57473;37.508;15.080;2022-09-25T05:15:49;20.10;66.10
70107;DHT22;57473;37.508;15.080;2022-09-25T05:18:19;20.10;65.80
70107;DHT22;57473;37.508;15.080;2022-09-25T05:20:48;20.10;65.80
70107;DHT22;57473;37.508;15.080;2022-09-25T05:23:16;20.10;65.60
70107;DHT22;57473;37.508;15.080;2022-09-25T05:25:43;20.10;65.40
70107;DHT22;57473;37.508;15.080;2022-09-25T05:28:16;20.20;65.20
70107;DHT22;57473;37.508;15.080;2022-09-25T05:30:44;20.20;65.20
70107;DHT22;57473;37.508;15.080;2022-09-25T05:33:12;20.30;64.80
70107;DHT22;57473;37.508;15.080;2022-09-25T05:35:39;20.40;64.40
70107;DHT22;57473;37.508;15.080;2022-09-25T05:38:06;20.40;64.10
70107;DHT22;57473;37.508;15.080;2022-09-25T05:40:34;20.40;63.60
70107;DHT22;57473;37.508;15.080;2022-09-25T05:43:05;20.20;64.30
70107;DHT22;57473;37.508;15.080;2022-09-25T05:45:33;20.00;65.00
70107;DHT22;57473;37.508;15.080;2022-09-25T05:48:05;19.90;65.40
70107;DHT22;57473;37.508;15.080;2022-09-25T05:50:34;19.80;65.80
70107;DHT22;57473;37.508;15.080;2022-09-25T05:53:03;19.70;66.30
70107;DHT22;57473;37.508;15.080;2022-09-25T05:55:31;19.60;66.60
70107;DHT22;57473;37.508;15.080;2022-09-25T05:58:02;19.50;67.00
70107;DHT22;57473;37.508;15.080;2022-09-25T06:00:31;19.50;67.40
70107;DHT22;57473;37.508;15.080;2022-09-25T06:03:01;19.60;67.40
70107;DHT22;57473;37.508;15.080;2022-09-25T06:05:28;19.70;67.30
70107;DHT22;57473;37.508;15.080;2022-09-25T06:07:55;19.70;67.40
70107;DHT22;57473;37.508;15.080;2022-09-25T06:10:23;19.90;67.50
70107;DHT22;57473;37.508;15.080;2022-09-25T06:13:00;20.10;66.70
70107;DHT22;57473;37.508;15.080;2022-09-25T06:15:28;20.40;65.90
70107;DHT22;57473;37.508;15.080;2022-09-25T06:17:56;20.60;65.40
70107;DHT22;57473;37.508;15.080;2022-09-25T06:20:24;20.80;64.90
70107;DHT22;57473;37.508;15.080;2022-09-25T06:22:55;21.00;64.20
70107;DHT22;57473;37.508;15.080;2022-09-25T06:25:24;21.20;63.70
70107;DHT22;57473;37.508;15.080;2022-09-25T06:27:56;21.40;62.90
70107;DHT22;57473;37.508;15.080;2022-09-25T06:30:25;21.50;62.40
70107;DHT22;57473;37.508;15.080;2022-09-25T06:33:11;21.60;62.10
70107;DHT22;57473;37.508;15.080;2022-09-25T06:35:43;21.70;61.00
70107;DHT22;57473;37.508;15.080;2022-09-25T06:38:12;21.70;60.90
70107;DHT22;57473;37.508;15.080;2022-09-25T06:40:40;21.70;60.70
70107;DHT22;57473;37.508;15.080;2022-09-25T06:43:14;21.70;60.80
70107;DHT22;57473;37.508;15.080;2022-09-25T06:45:42;21.70;60.90
70107;DHT22;57473;37.508;15.080;2022-09-25T06:48:11;21.90;60.50
70107;DHT22;57473;37.508;15.080;2022-09-25T06:50:41;21.90;60.10
70107;DHT22;57473;37.508;15.080;2022-09-25T06:53:10;22.10;59.90
70107;DHT22;57473;37.508;15.080;2022-09-25T06:55:39;22.20;59.00
70107;DHT22;57473;37.508;15.080;2022-09-25T06:58:13;22.20;59.10
70107;DHT22;57473;37.508;15.080;2022-09-25T07:00:45;22.20;59.10
70107;DHT22;57473;37.508;15.080;2022-09-25T07:03:13;22.30;58.50
70107;DHT22;57473;37.508;15.080;2022-09-25T07:05:59;22.40;58.40
70107;DHT22;57473;37.508;15.080;2022-09-25T07:08:27;22.60;57.60
70107;DHT22;57473;37.508;15.080;2022-09-25T07:10:56;22.60;57.60
70107;DHT22;57473;37.508;15.080;2022-09-25T07:13:26;22.70;57.40
70107;DHT22;57473;37.508;15.080;2022-09-25T07:15:59;22.70;57.30
70107;DHT22;57473;37.508;15.080;2022-09-25T07:18:28;22.80;57.30
70107;DHT22;57473;37.508;15.080;2022-09-25T07:21:00;22.80;57.00
70107;DHT22;57473;37.508;15.080;2022-09-25T07:23:29;22.90;56.60
70107;DHT22;57473;37.508;15.080;2022-09-25T07:26:06;23.00;56.40
70107;DHT22;57473;37.508;15.080;2022-09-25T07:28:34;23.10;56.10
70107;DHT22;57473;37.508;15.080;2022-09-25T07:31:15;23.20;56.00
70107;DHT22;57473;37.508;15.080;2022-09-25T07:33:44;23.30;55.90
70107;DHT22;57473;37.508;15.080;2022-09-25T07:36:12;23.40;55.70
70107;DHT22;57473;37.508;15.080;2022-09-25T07:38:40;23.40;55.60
70107;DHT22;57473;37.508;15.080;2022-09-25T07:41:11;23.40;55.90
70107;DHT22;57473;37.508;15.080;2022-09-25T07:43:39;23.60;55.50
70107;DHT22;57473;37.508;15.080;2022-09-25T07:46:11;23.80;54.80
70107;DHT22;57473;37.508;15.080;2022-09-25T07:48:38;23.90;54.30
70107;DHT22;57473;37.508;15.080;2022-09-25T07:51:08;24.10;54.00
70107;DHT22;57473;37.508;15.080;2022-09-25T07:53:37;24.20;53.60
70107;DHT22;57473;37.508;15.080;2022-09-25T07:56:04;24.30;53.50
70107;DHT22;57473;37.508;15.080;2022-09-25T07:58:34;24.40;53.10
70107;DHT22;57473;37.508;15.080;2022-09-25T08:01:03;24.50;53.20
70107;DHT22;57473;37.508;15.080;2022-09-25T08:03:31;24.60;52.80
70107;DHT22;57473;37.508;15.080;2022-09-25T08:06:03;24.70;52.30
70107;DHT22;57473;37.508;15.080;2022-09-25T08:08:33;24.80;52.20
70107;DHT22;57473;37.508;15.080;2022-09-25T08:11:02;24.90;52.10
70107;DHT22;57473;37.508;15.080;2022-09-25T08:13:33;25.00;51.60
70107;DHT22;57473;37.508;15.080;2022-09-25T08:16:02;25.20;51.60
70107;DHT22;57473;37.508;15.080;2022-09-25T08:18:29;25.30;51.30
70107;DHT22;57473;37.508;15.080;2022-09-25T08:21:04;25.40;50.90
70107;DHT22;57473;37.508;15.080;2022-09-25T08:23:31;25.60;51.00
70107;DHT22;57473;37.508;15.080;2022-09-25T08:25:59;25.90;50.20
70107;DHT22;57473;37.508;15.080;2022-09-25T08:28:27;26.00;50.20
70107;DHT22;57473;37.508;15.080;2022-09-25T08:30:57;26.20;50.70
70107;DHT22;57473;37.508;15.080;2022-09-25T08:33:25;26.40;49.40
70107;DHT22;57473;37.508;15.080;2022-09-25T08:35:57;26.50;49.20
70107;DHT22;57473;37.508;15.080;2022-09-25T08:38:26;26.60;49.90
70107;DHT22;57473;37.508;15.080;2022-09-25T08:41:09;26.80;49.40
70107;DHT22;57473;37.508;15.080;2022-09-25T08:46:22;27.00;49.00
70107;DHT22;57473;37.508;15.080;2022-09-25T08:49:11;27.00;49.30
70107;DHT22;57473;37.508;15.080;2022-09-25T08:51:43;26.80;49.80
70107;DHT22;57473;37.508;15.080;2022-09-25T08:54:26;26.90;49.90
70107;DHT22;57473;37.508;15.080;2022-09-25T08:56:59;27.10;50.50
70107;DHT22;57473;37.508;15.080;2022-09-25T08:59:36;27.30;49.60
70107;DHT22;57473;37.508;15.080;2022-09-25T09:02:40;27.40;50.00
70107;DHT22;57473;37.508;15.080;2022-09-25T09:05:33;27.30;50.00
70107;DHT22;57473;37.508;15.080;2022-09-25T09:08:08;27.40;49.30
70107;DHT22;57473;37.508;15.080;2022-09-25T09:10:42;27.40;49.60
70107;DHT22;57473;37.508;15.080;2022-09-25T09:15:48;27.50;50.00
70107;DHT22;57473;37.508;15.080;2022-09-25T09:18:24;27.40;50.30
70107;DHT22;57473;37.508;15.080;2022-09-25T09:26:26;27.70;49.50
70107;DHT22;57473;37.508;15.080;2022-09-25T09:46:49;27.70;49.50
70107;DHT22;57473;37.508;15.080;2022-09-25T09:52:41;28.10;48.70
70107;DHT22;57473;37.508;15.080;2022-09-25T09:58:03;28.60;47.80
70107;DHT22;57473;37.508;15.080;2022-09-25T10:00:35;28.80;47.30
70107;DHT22;57473;37.508;15.080;2022-09-25T10:05:50;29.00;46.80
70107;DHT22;57473;37.508;15.080;2022-09-25T10:08:19;29.00;46.80
70107;DHT22;57473;37.508;15.080;2022-09-25T10:10:50;28.90;46.70
70107;DHT22;57473;37.508;15.080;2022-09-25T10:13:38;28.80;46.80
70107;DHT22;57473;37.508;15.080;2022-09-25T10:16:19;28.70;47.10
70107;DHT22;57473;37.508;15.080;2022-09-25T10:18:56;28.70;47.60
70107;DHT22;57473;37.508;15.080;2022-09-25T10:21:30;28.70;48.10
70107;DHT22;57473;37.508;15.080;2022-09-25T10:23:58;28.20;48.50
70107;DHT22;57473;37.508;15.080;2022-09-25T10:26:31;27.90;50.00
70107;DHT22;57473;37.508;15.080;2022-09-25T10:29:25;27.80;50.40
70107;DHT22;57473;37.508;15.080;2022-09-25T10:32:02;27.50;51.30
70107;DHT22;57473;37.508;15.080;2022-09-25T10:34:30;27.50;51.20
70107;DHT22;57473;37.508;15.080;2022-09-25T10:37:14;27.40;51.50
70107;DHT22;57473;37.508;15.080;2022-09-25T10:40:22;27.40;52.00
70107;DHT22;57473;37.508;15.080;2022-09-25T10:43:22;27.60;51.90
70107;DHT22;57473;37.508;15.080;2022-09-25T10:48:33;27.40;54.20
70107;DHT22;57473;37.508;15.080;2022-09-25T10:51:20;27.20;54.10
70107;DHT22;57473;37.508;15.080;2022-09-25T10:53:49;27.10;55.00
70107;DHT22;57473;37.508;15.080;2022-09-25T10:56:29;27.00;56.10
70107;DHT22;57473;37.508;15.080;2022-09-25T10:59:24;26.80;57.80
70107;DHT22;57473;37.508;15.080;2022-09-25T11:01:53;26.80;58.30
70107;DHT22;57473;37.508;15.080;2022-09-25T11:04:26;26.70;59.30
70107;DHT22;57473;37.508;15.080;2022-09-25T11:07:00;26.60;59.80
70107;DHT22;57473;37.508;15.080;2022-09-25T11:09:30;26.60;59.70
70107;DHT22;57473;37.508;15.080;2022-09-25T11:12:18;26.50;60.20
70107;DHT22;57473;37.508;15.080;2022-09-25T11:15:11;26.40;60.80
70107;DHT22;57473;37.508;15.080;2022-09-25T11:17:49;26.20;61.70
70107;DHT22;57473;37.508;15.080;2022-09-25T11:28:15;26.00;63.00
70107;DHT22;57473;37.508;15.080;2022-09-25T11:30:52;25.80;63.90
70107;DHT22;57473;37.508;15.080;2022-09-25T11:33:47;26.10;64.00
70107;DHT22;57473;37.508;15.080;2022-09-25T11:36:44;26.70;62.20
70107;DHT22;57473;37.508;15.080;2022-09-25T11:39:27;27.00;62.00
70107;DHT22;57473;37.508;15.080;2022-09-25T11:42:43;27.50;61.00
70107;DHT22;57473;37.508;15.080;2022-09-25T11:45:23;28.00;59.10
70107;DHT22;57473;37.508;15.080;2022-09-25T11:48:03;27.70;60.90
70107;DHT22;57473;37.508;15.080;2022-09-25T11:53:53;29.20;56.90
70107;DHT22;57473;37.508;15.080;2022-09-25T11:57:22;28.90;58.00
70107;DHT22;57473;37.508;15.080;2022-09-25T12:05:45;27.10;65.50
70107;DHT22;57473;37.508;15.080;2022-09-25T12:08:29;26.90;66.30
70107;DHT22;57473;37.508;15.080;2022-09-25T12:11:16;27.00;66.70
70107;DHT22;57473;37.508;15.080;2022-09-25T12:14:00;27.20;66.20
70107;DHT22;57473;37.508;15.080;2022-09-25T12:16:56;27.50;65.40
70107;DHT22;57473;37.508;15.080;2022-09-25T12:24:54;28.90;60.40
70107;DHT22;57473;37.508;15.080;2022-09-25T12:30:14;28.90;58.60
70107;DHT22;57473;37.508;15.080;2022-09-25T12:33:07;29.60;55.60
70107;DHT22;57473;37.508;15.080;2022-09-25T12:36:09;30.20;54.40
70107;DHT22;57473;37.508;15.080;2022-09-25T12:42:17;31.70;49.30
70107;DHT22;57473;37.508;15.080;2022-09-25T12:44:34;32.20;49.60
70107;DHT22;57473;37.508;15.080;2022-09-25T12:47:49;32.30;49.40
70107;DHT22;57473;37.508;15.080;2022-09-25T12:50:07;32.90;48.10
70107;DHT22;57473;37.508;15.080;2022-09-25T12:52:39;32.90;48.10
70107;DHT22;57473;37.508;15.080;2022-09-25T12:55:21;32.80;47.40
70107;DHT22;57473;37.508;15.080;2022-09-25T13:00:31;31.10;50.70
70107;DHT22;57473;37.508;15.080;2022-09-25T13:03:10;30.80;51.00
70107;DHT22;57473;37.508;15.080;2022-09-25T13:05:44;30.50;51.80
70107;DHT22;57473;37.508;15.080;2022-09-25T13:08:21;30.40;53.40
70107;DHT22;57473;37.508;15.080;2022-09-25T13:13:35;30.40;54.30
70107;DHT22;57473;37.508;15.080;2022-09-25T13:16:10;30.10;55.80
70107;DHT22;57473;37.508;15.080;2022-09-25T13:19:21;30.00;57.20
70107;DHT22;57473;37.508;15.080;2022-09-25T13:21:49;29.60;56.60
70107;DHT22;57473;37.508;15.080;2022-09-25T13:24:17;28.90;60.50
70107;DHT22;57473;37.508;15.080;2022-09-25T13:26:50;27.90;62.90
70107;DHT22;57473;37.508;15.080;2022-09-25T13:29:25;27.40;65.40
70107;DHT22;57473;37.508;15.080;2022-09-25T13:32:24;27.80;65.10
70107;DHT22;57473;37.508;15.080;2022-09-25T13:34:57;27.90;63.70
70107;DHT22;57473;37.508;15.080;2022-09-25T13:37:35;27.20;66.40
70107;DHT22;57473;37.508;15.080;2022-09-25T13:40:15;26.80;67.80
70107;DHT22;57473;37.508;15.080;2022-09-25T13:46:27;26.20;70.50
70107;DHT22;57473;37.508;15.080;2022-09-25T13:49:32;26.00;71.70
70107;DHT22;57473;37.508;15.080;2022-09-25T13:52:00;25.70;73.30
70107;DHT22;57473;37.508;15.080;2022-09-25T13:54:27;25.70;73.80
70107;DHT22;57473;37.508;15.080;2022-09-25T13:56:54;25.80;73.90
70107;DHT22;57473;37.508;15.080;2022-09-25T13:59:36;25.70;74.30
70107;DHT22;57473;37.508;15.080;2022-09-25T14:02:42;25.80;73.90
70107;DHT22;57473;37.508;15.080;2022-09-25T14:05:15;25.90;73.60
70107;DHT22;57473;37.508;15.080;2022-09-25T14:07:43;26.10;72.70
70107;DHT22;57473;37.508;15.080;2022-09-25T14:10:12;26.20;72.30
70107;DHT22;57473;37.508;15.080;2022-09-25T14:12:44;26.30;72.20
70107;DHT22;57473;37.508;15.080;2022-09-25T14:15:32;26.40;70.40
70107;DHT22;57473;37.508;15.080;2022-09-25T14:18:05;26.50;68.80
70107;DHT22;57473;37.508;15.080;2022-09-25T14:20:38;26.60;65.70
70107;DHT22;57473;37.508;15.080;2022-09-25T14:23:15;26.70;63.30
70107;DHT22;57473;37.508;15.080;2022-09-25T14:25:42;26.80;61.90
70107;DHT22;57473;37.508;15.080;2022-09-25T14:28:24;26.90;60.20
70107;DHT22;57473;37.508;15.080;2022-09-25T14:42:40;26.60;61.90
70107;DHT22;57473;37.508;15.080;2022-09-25T14:47:55;26.50;61.30
70107;DHT22;57473;37.508;15.080;2022-09-25T14:50:26;26.30;61.40
70107;DHT22;57473;37.508;15.080;2022-09-25T14:52:58;26.30;61.10
70107;DHT22;57473;37.508;15.080;2022-09-25T14:55:37;26.20;60.90
70107;DHT22;57473;37.508;15.080;2022-09-25T14:58:09;26.10;60.60
70107;DHT22;57473;37.508;15.080;2022-09-25T15:00:46;26.00;60.50
70107;DHT22;57473;37.508;15.080;2022-09-25T15:03:16;25.90;60.20
70107;DHT22;57473;37.508;15.080;2022-09-25T15:05:46;25.70;63.20
70107;DHT22;57473;37.508;15.080;2022-09-25T15:08:36;24.80;71.20
70107;DHT22;57473;37.508;15.080;2022-09-25T15:11:16;23.90;76.40
70107;DHT22;57473;37.508;15.080;2022-09-25T15:13:44;23.30;80.50
70107;DHT22;57473;37.508;15.080;2022-09-25T15:16:18;22.90;83.00
70107;DHT22;57473;37.508;15.080;2022-09-25T15:19:25;22.60;85.60
70107;DHT22;57473;37.508;15.080;2022-09-25T15:21:53;22.30;87.60
70107;DHT22;57473;37.508;15.080;2022-09-25T15:24:24;22.10;89.50
70107;DHT22;57473;37.508;15.080;2022-09-25T15:26:59;21.90;91.70
70107;DHT22;57473;37.508;15.080;2022-09-25T15:29:34;21.80;93.20
70107;DHT22;57473;37.508;15.080;2022-09-25T15:32:03;21.70;94.50
70107;DHT22;57473;37.508;15.080;2022-09-25T15:34:33;21.60;93.70
70107;DHT22;57473;37.508;15.080;2022-09-25T15:37:29;21.50;94.10
70107;DHT22;57473;37.508;15.080;2022-09-25T15:40:00;21.60;95.70
70107;DHT22;57473;37.508;15.080;2022-09-25T15:42:43;21.60;95.10
70107;DHT22;57473;37.508;15.080;2022-09-25T15:50:43;21.50;92.30
70107;DHT22;57473;37.508;15.080;2022-09-25T15:53:27;21.60;92.60
70107;DHT22;57473;37.508;15.080;2022-09-25T15:56:23;21.70;89.70
70107;DHT22;57473;37.508;15.080;2022-09-25T15:58:52;21.90;88.60
70107;DHT22;57473;37.508;15.080;2022-09-25T16:01:24;22.00;86.60
70107;DHT22;57473;37.508;15.080;2022-09-25T16:04:22;22.20;86.40
70107;DHT22;57473;37.508;15.080;2022-09-25T16:10:00;22.30;85.00
70107;DHT22;57473;37.508;15.080;2022-09-25T16:12:48;22.10;86.70
70107;DHT22;57473;37.508;15.080;2022-09-25T16:18:00;21.50;91.00
70107;DHT22;57473;37.508;15.080;2022-09-25T16:20:39;21.30;90.80
70107;DHT22;57473;37.508;15.080;2022-09-25T16:23:26;21.20;93.80
70107;DHT22;57473;37.508;15.080;2022-09-25T16:25:55;21.20;92.10
70107;DHT22;57473;37.508;15.080;2022-09-25T16:28:26;21.20;90.10
70107;DHT22;57473;37.508;15.080;2022-09-25T16:33:30;21.10;91.00
70107;DHT22;57473;37.508;15.080;2022-09-25T16:36:01;21.10;92.00
70107;DHT22;57473;37.508;15.080;2022-09-25T16:41:35;20.90;94.30
70107;DHT22;57473;37.508;15.080;2022-09-25T16:44:20;20.80;94.80
70107;DHT22;57473;37.508;15.080;2022-09-25T16:49:18;20.80;94.50
70107;DHT22;57473;37.508;15.080;2022-09-25T16:51:46;20.80;93.30
70107;DHT22;57473;37.508;15.080;2022-09-25T16:54:17;20.80;93.10
70107;DHT22;57473;37.508;15.080;2022-09-25T16:56:46;20.80;93.20
70107;DHT22;57473;37.508;15.080;2022-09-25T16:59:21;20.80;93.40
70107;DHT22;57473;37.508;15.080;2022-09-25T17:01:50;20.80;92.60
70107;DHT22;57473;37.508;15.080;2022-09-25T17:04:21;21.00;91.90
70107;DHT22;57473;37.508;15.080;2022-09-25T17:06:49;21.10;91.30
70107;DHT22;57473;37.508;15.080;2022-09-25T17:09:17;21.30;90.00
70107;DHT22;57473;37.508;15.080;2022-09-25T17:11:45;21.40;90.60
70107;DHT22;57473;37.508;15.080;2022-09-25T17:14:26;21.50;90.10
70107;DHT22;57473;37.508;15.080;2022-09-25T17:16:55;21.50;90.90
70107;DHT22;57473;37.508;15.080;2022-09-25T17:19:23;21.50;91.20
70107;DHT22;57473;37.508;15.080;2022-09-25T17:21:51;21.50;91.40
70107;DHT22;57473;37.508;15.080;2022-09-25T17:24:21;21.50;92.00
70107;DHT22;57473;37.508;15.080;2022-09-25T17:26:50;21.50;91.80
70107;DHT22;57473;37.508;15.080;2022-09-25T17:29:19;21.60;91.60
70107;DHT22;57473;37.508;15.080;2022-09-25T17:31:46;21.60;90.70
70107;DHT22;57473;37.508;15.080;2022-09-25T17:34:17;21.60;91.90
70107;DHT22;57473;37.508;15.080;2022-09-25T17:36:44;21.60;90.90
70107;DHT22;57473;37.508;15.080;2022-09-25T17:39:12;21.60;90.90
70107;DHT22;57473;37.508;15.080;2022-09-25T17:41:39;21.60;91.30
70107;DHT22;57473;37.508;15.080;2022-09-25T17:44:13;21.60;89.90
70107;DHT22;57473;37.508;15.080;2022-09-25T17:46:42;21.70;89.50
70107;DHT22;57473;37.508;15.080;2022-09-25T17:49:09;21.70;88.80
70107;DHT22;57473;37.508;15.080;2022-09-25T17:51:37;21.60;88.30
70107;DHT22;57473;37.508;15.080;2022-09-25T17:54:05;21.70;88.70
70107;DHT22;57473;37.508;15.080;2022-09-25T17:56:33;21.70;88.20
70107;DHT22;57473;37.508;15.080;2022-09-25T17:59:00;21.60;88.30
70107;DHT22;57473;37.508;15.080;2022-09-25T18:01:30;21.60;89.20
70107;DHT22;57473;37.508;15.080;2022-09-25T18:06:44;21.50;90.60
70107;DHT22;57473;37.508;15.080;2022-09-25T18:09:11;21.50;90.80
70107;DHT22;57473;37.508;15.080;2022-09-25T18:11:38;21.50;90.40
70107;DHT22;57473;37.508;15.080;2022-09-25T18:14:13;21.60;89.60
70107;DHT22;57473;37.508;15.080;2022-09-25T18:16:42;21.60;89.20